createdAt,value
2019-05-06T00:02:37.626Z,63.81
2019-05-06T00:17:37.837Z,63.71
2019-05-06T00:32:37.968Z,62.78
2019-05-06T00:47:38.390Z,63.67
2019-05-06T01:02:38.510Z,64.93
2019-05-06T01:17:38.746Z,66.78
2019-05-06T01:32:39.034Z,69.67
2019-05-06T01:47:39.355Z,71.08
2019-05-06T02:02:39.541Z,72.80
2019-05-06T02:17:39.862Z,74.01
2019-05-06T02:32:39.995Z,76.26
2019-05-06T02:47:43.042Z,77.65
2019-05-06T03:02:47.719Z,78.41
2019-05-06T03:17:48.817Z,80.67
2019-05-06T03:33:28.207Z,81.96
2019-05-06T03:47:54.451Z,83.87
2019-05-06T04:02:56.902Z,84.77
2019-05-06T04:17:58.396Z,84.66
2019-05-06T04:32:58.661Z,83.51
2019-05-06T04:47:59.044Z,83.12
2019-05-06T05:02:59.615Z,80.16
2019-05-06T05:18:02.802Z,78.05
2019-05-06T05:33:03.456Z,75.63
2019-05-06T05:48:03.689Z,71.85
2019-05-06T06:03:06.768Z,67.30
2019-05-06T06:18:07.143Z,60.69
2019-05-06T06:33:07.302Z,56.30
2019-05-06T06:48:07.540Z,51.40
2019-05-06T07:03:07.683Z,48.94
2019-05-06T07:18:07.800Z,44.56
2019-05-06T07:33:08.014Z,44.26
2019-05-06T07:48:08.210Z,42.69
2019-05-06T08:03:08.463Z,43.10
2019-05-06T08:18:08.635Z,41.52
2019-05-06T08:33:08.850Z,44.12
2019-05-06T08:48:09.043Z,44.79
2019-05-06T09:03:09.283Z,40.20
2019-05-06T09:18:09.463Z,38.02
2019-05-06T09:33:09.701Z,38.66
2019-05-06T09:48:12.637Z,42.49
2019-05-06T10:03:13.140Z,41.88
2019-05-06T10:18:13.605Z,37.95
2019-05-06T10:33:13.401Z,41.05
2019-05-06T10:48:13.504Z,38.45
2019-05-06T11:03:14.972Z,36.77
2019-05-06T11:18:14.845Z,33.81
2019-05-06T11:33:14.952Z,36.19
2019-05-06T11:48:15.123Z,38.15
2019-05-06T12:03:15.314Z,38.49
2019-05-06T12:18:15.441Z,40.23
2019-05-06T12:33:15.631Z,38.73
2019-05-06T12:48:15.811Z,38.76
2019-05-06T13:03:15.996Z,35.90
2019-05-06T13:18:16.119Z,36.74
2019-05-06T13:33:16.513Z,38.95
2019-05-06T13:48:16.424Z,38.97
2019-05-06T14:03:17.628Z,35.88
2019-05-06T14:18:17.799Z,38.30
2019-05-06T14:33:17.976Z,40.42
2019-05-06T14:48:18.141Z,42.51
2019-05-06T15:03:18.336Z,45.94
2019-05-06T15:18:19.017Z,46.24
2019-05-06T15:33:19.167Z,49.98
2019-05-06T15:48:19.350Z,51.65
2019-05-06T16:03:19.511Z,54.57
2019-05-06T16:18:19.818Z,56.63
2019-05-06T16:33:21.915Z,56.46
2019-05-06T16:48:22.748Z,57.99
2019-05-06T17:03:23.200Z,58.33
2019-05-06T17:18:24.167Z,59.96
2019-05-06T17:33:24.213Z,62.37
2019-05-06T17:48:27.568Z,64.92
2019-05-06T18:03:27.703Z,68.91
2019-05-06T18:18:29.020Z,69.43
2019-05-06T18:33:29.222Z,70.42
2019-05-06T18:48:31.673Z,72.03
2019-05-06T19:03:34.694Z,74.43
2019-05-06T19:18:34.869Z,77.14
2019-05-06T19:33:35.072Z,77.59
2019-05-06T19:48:35.213Z,79.41
2019-05-06T20:03:35.382Z,81.07
2019-05-06T20:18:35.605Z,81.37
2019-05-06T20:33:35.819Z,82.55
2019-05-06T20:48:36.137Z,80.48
2019-05-06T21:03:36.351Z,81.45
2019-05-06T21:18:36.485Z,81.38
2019-05-06T21:33:36.766Z,81.49
2019-05-06T21:48:37.058Z,81.18
2019-05-06T22:03:37.356Z,80.32
2019-05-06T22:18:37.405Z,79.80
2019-05-06T22:33:37.673Z,79.25
2019-05-06T22:48:37.811Z,79.04
2019-05-06T23:03:37.971Z,79.21
2019-05-06T23:18:38.188Z,79.11
2019-05-06T23:33:38.435Z,80.86
2019-05-06T23:48:38.718Z,82.96
